sensor_id;sensor_type;location;lat;lon;timestamp;temperature;humidity
15105;DHT22;7653;48.994;9.212;2023-05-17T00:01:24;7.70;45.00
15105;DHT22;7653;48.994;9.212;2023-05-17T00:03:50;7.70;44.60
15105;DHT22;7653;48.994;9.212;2023-05-17T00:06:18;7.70;43.20
15105;DHT22;7653;48.994;9.212;2023-05-17T00:08:44;7.70;42.90
15105;DHT22;7653;48.994;9.212;2023-05-17T00:11:10;7.50;43.40
15105;DHT22;7653;48.994;9.212;2023-05-17T00:13:36;7.30;45.30
15105;DHT22;7653;48.994;9.212;2023-05-17T00:16:03;7.20;45.40
15105;DHT22;7653;48.994;9.212;2023-05-17T00:18:29;7.10;46.90
15105;DHT22;7653;48.994;9.212;2023-05-17T00:20:54;7.20;48.00
15105;DHT22;7653;48.994;9.212;2023-05-17T00:23:20;7.30;46.70
15105;DHT22;7653;48.994;9.212;2023-05-17T00:25:46;7.40;47.50
15105;DHT22;7653;48.994;9.212;2023-05-17T00:28:11;7.40;46.20
15105;DHT22;7653;48.994;9.212;2023-05-17T00:30:37;7.40;46.30
15105;DHT22;7653;48.994;9.212;2023-05-17T00:33:03;7.40;45.20
15105;DHT22;7653;48.994;9.212;2023-05-17T00:35:29;7.40;44.80
15105;DHT22;7653;48.994;9.212;2023-05-17T00:37:55;7.40;44.40
15105;DHT22;7653;48.994;9.212;2023-05-17T00:40:20;7.40;44.70
15105;DHT22;7653;48.994;9.212;2023-05-17T00:42:46;7.30;44.70
15105;DHT22;7653;48.994;9.212;2023-05-17T00:45:12;7.30;44.70
15105;DHT22;7653;48.994;9.212;2023-05-17T00:47:37;7.20;44.80
15105;DHT22;7653;48.994;9.212;2023-05-17T00:50:04;7.20;44.40
15105;DHT22;7653;48.994;9.212;2023-05-17T00:52:30;7.10;44.80
15105;DHT22;7653;48.994;9.212;2023-05-17T00:54:55;7.20;45.30
15105;DHT22;7653;48.994;9.212;2023-05-17T00:57:21;7.20;44.90
15105;DHT22;7653;48.994;9.212;2023-05-17T00:59:48;7.10;45.10
15105;DHT22;7653;48.994;9.212;2023-05-17T01:02:15;7.10;45.10
15105;DHT22;7653;48.994;9.212;2023-05-17T01:04:42;7.10;45.30
15105;DHT22;7653;48.994;9.212;2023-05-17T01:07:09;7.10;45.10
15105;DHT22;7653;48.994;9.212;2023-05-17T01:09:36;7.10;44.70
15105;DHT22;7653;48.994;9.212;2023-05-17T01:15:25;7.20;44.20
15105;DHT22;7653;48.994;9.212;2023-05-17T01:18:27;7.20;44.20
15105;DHT22;7653;48.994;9.212;2023-05-17T01:20:57;7.20;43.90
15105;DHT22;7653;48.994;9.212;2023-05-17T01:26:15;7.20;44.20
15105;DHT22;7653;48.994;9.212;2023-05-17T01:28:44;7.20;43.70
15105;DHT22;7653;48.994;9.212;2023-05-17T01:31:11;7.30;43.40
15105;DHT22;7653;48.994;9.212;2023-05-17T01:33:37;7.30;43.20
15105;DHT22;7653;48.994;9.212;2023-05-17T01:36:04;7.30;43.50
15105;DHT22;7653;48.994;9.212;2023-05-17T01:38:30;7.30;43.10
15105;DHT22;7653;48.994;9.212;2023-05-17T01:41:09;7.30;43.00
15105;DHT22;7653;48.994;9.212;2023-05-17T01:46:27;7.40;43.50
15105;DHT22;7653;48.994;9.212;2023-05-17T01:51:32;7.30;43.60
15105;DHT22;7653;48.994;9.212;2023-05-17T01:54:04;7.40;43.80
15105;DHT22;7653;48.994;9.212;2023-05-17T01:56:37;7.40;43.70
15105;DHT22;7653;48.994;9.212;2023-05-17T01:59:05;7.30;44.20
15105;DHT22;7653;48.994;9.212;2023-05-17T02:01:32;7.30;44.30
15105;DHT22;7653;48.994;9.212;2023-05-17T02:03:59;7.30;44.30
15105;DHT22;7653;48.994;9.212;2023-05-17T02:06:25;7.30;45.00
15105;DHT22;7653;48.994;9.212;2023-05-17T02:08:50;7.30;43.10
15105;DHT22;7653;48.994;9.212;2023-05-17T02:11:16;7.30;43.00
15105;DHT22;7653;48.994;9.212;2023-05-17T02:13:42;7.30;44.30
15105;DHT22;7653;48.994;9.212;2023-05-17T02:16:07;7.20;44.20
15105;DHT22;7653;48.994;9.212;2023-05-17T02:18:33;7.10;44.70
15105;DHT22;7653;48.994;9.212;2023-05-17T02:21:00;7.20;44.20
15105;DHT22;7653;48.994;9.212;2023-05-17T02:23:25;7.20;44.20
15105;DHT22;7653;48.994;9.212;2023-05-17T02:25:51;7.20;44.20
15105;DHT22;7653;48.994;9.212;2023-05-17T02:28:17;7.20;44.20
15105;DHT22;7653;48.994;9.212;2023-05-17T02:30:43;7.20;44.40
15105;DHT22;7653;48.994;9.212;2023-05-17T02:33:10;7.20;44.20
15105;DHT22;7653;48.994;9.212;2023-05-17T02:35:35;7.20;44.70
15105;DHT22;7653;48.994;9.212;2023-05-17T02:38:01;7.20;45.00
15105;DHT22;7653;48.994;9.212;2023-05-17T02:40:27;7.20;45.10
15105;DHT22;7653;48.994;9.212;2023-05-17T02:42:52;7.20;45.00
15105;DHT22;7653;48.994;9.212;2023-05-17T02:45:18;7.20;45.70
15105;DHT22;7653;48.994;9.212;2023-05-17T02:47:44;7.20;45.60
15105;DHT22;7653;48.994;9.212;2023-05-17T02:50:09;7.10;46.40
15105;DHT22;7653;48.994;9.212;2023-05-17T02:52:35;7.10;46.10
15105;DHT22;7653;48.994;9.212;2023-05-17T02:55:01;7.00;45.90
15105;DHT22;7653;48.994;9.212;2023-05-17T02:57:26;6.90;47.90
15105;DHT22;7653;48.994;9.212;2023-05-17T02:59:52;6.90;48.30
15105;DHT22;7653;48.994;9.212;2023-05-17T03:02:18;6.70;48.60
15105;DHT22;7653;48.994;9.212;2023-05-17T03:04:43;6.70;48.70
15105;DHT22;7653;48.994;9.212;2023-05-17T03:07:09;6.80;48.70
15105;DHT22;7653;48.994;9.212;2023-05-17T03:09:35;6.80;48.70
15105;DHT22;7653;48.994;9.212;2023-05-17T03:12:02;6.70;48.60
15105;DHT22;7653;48.994;9.212;2023-05-17T03:14:27;6.70;48.60
15105;DHT22;7653;48.994;9.212;2023-05-17T03:16:53;6.70;48.90
15105;DHT22;7653;48.994;9.212;2023-05-17T03:19:19;6.70;48.70
15105;DHT22;7653;48.994;9.212;2023-05-17T03:21:44;6.50;49.80
15105;DHT22;7653;48.994;9.212;2023-05-17T03:24:10;6.50;51.00
15105;DHT22;7653;48.994;9.212;2023-05-17T03:26:36;6.50;50.90
15105;DHT22;7653;48.994;9.212;2023-05-17T03:29:01;6.50;51.00
15105;DHT22;7653;48.994;9.212;2023-05-17T03:31:27;6.50;50.80
15105;DHT22;7653;48.994;9.212;2023-05-17T03:33:53;6.50;51.00
15105;DHT22;7653;48.994;9.212;2023-05-17T03:36:18;6.40;51.70
15105;DHT22;7653;48.994;9.212;2023-05-17T03:38:44;6.40;51.80
15105;DHT22;7653;48.994;9.212;2023-05-17T03:41:10;6.50;52.20
15105;DHT22;7653;48.994;9.212;2023-05-17T03:43:36;6.40;51.70
15105;DHT22;7653;48.994;9.212;2023-05-17T03:46:02;6.40;52.00
15105;DHT22;7653;48.994;9.212;2023-05-17T03:48:27;6.40;52.70
15105;DHT22;7653;48.994;9.212;2023-05-17T03:50:53;6.40;53.10
15105;DHT22;7653;48.994;9.212;2023-05-17T03:53:19;6.40;54.00
15105;DHT22;7653;48.994;9.212;2023-05-17T03:55:45;6.50;54.30
15105;DHT22;7653;48.994;9.212;2023-05-17T03:58:10;6.50;53.80
15105;DHT22;7653;48.994;9.212;2023-05-17T04:00:36;6.60;54.50
15105;DHT22;7653;48.994;9.212;2023-05-17T04:03:02;6.50;52.70
15105;DHT22;7653;48.994;9.212;2023-05-17T04:05:27;6.50;54.10
15105;DHT22;7653;48.994;9.212;2023-05-17T04:07:53;6.50;54.20
15105;DHT22;7653;48.994;9.212;2023-05-17T04:10:19;6.50;55.90
15105;DHT22;7653;48.994;9.212;2023-05-17T04:12:44;6.50;57.50
15105;DHT22;7653;48.994;9.212;2023-05-17T04:15:10;6.50;56.90
15105;DHT22;7653;48.994;9.212;2023-05-17T04:17:36;6.40;58.40
15105;DHT22;7653;48.994;9.212;2023-05-17T04:20:02;6.30;59.20
15105;DHT22;7653;48.994;9.212;2023-05-17T04:22:31;6.30;60.80
15105;DHT22;7653;48.994;9.212;2023-05-17T04:24:56;6.20;60.30
15105;DHT22;7653;48.994;9.212;2023-05-17T04:27:22;6.30;61.60
15105;DHT22;7653;48.994;9.212;2023-05-17T04:29:47;6.00;63.70
15105;DHT22;7653;48.994;9.212;2023-05-17T04:32:13;6.20;64.50
15105;DHT22;7653;48.994;9.212;2023-05-17T04:34:39;6.20;63.60
15105;DHT22;7653;48.994;9.212;2023-05-17T04:37:05;6.30;64.70
15105;DHT22;7653;48.994;9.212;2023-05-17T04:39:31;6.40;66.70
15105;DHT22;7653;48.994;9.212;2023-05-17T04:41:56;6.50;66.90
15105;DHT22;7653;48.994;9.212;2023-05-17T04:44:22;6.60;65.70
15105;DHT22;7653;48.994;9.212;2023-05-17T04:46:48;6.60;65.40
15105;DHT22;7653;48.994;9.212;2023-05-17T04:49:14;6.80;65.50
15105;DHT22;7653;48.994;9.212;2023-05-17T04:51:40;6.80;66.40
15105;DHT22;7653;48.994;9.212;2023-05-17T04:54:06;6.90;65.80
15105;DHT22;7653;48.994;9.212;2023-05-17T04:56:34;7.00;64.60
15105;DHT22;7653;48.994;9.212;2023-05-17T04:59:01;7.00;64.90
15105;DHT22;7653;48.994;9.212;2023-05-17T05:01:27;7.20;65.70
15105;DHT22;7653;48.994;9.212;2023-05-17T05:03:55;7.30;60.60
15105;DHT22;7653;48.994;9.212;2023-05-17T05:06:22;7.40;60.20
15105;DHT22;7653;48.994;9.212;2023-05-17T05:08:47;7.60;63.40
15105;DHT22;7653;48.994;9.212;2023-05-17T05:11:13;7.60;58.80
15105;DHT22;7653;48.994;9.212;2023-05-17T05:13:39;7.60;56.60
15105;DHT22;7653;48.994;9.212;2023-05-17T05:16:06;7.80;54.30
15105;DHT22;7653;48.994;9.212;2023-05-17T05:18:32;7.60;54.50
15105;DHT22;7653;48.994;9.212;2023-05-17T05:20:58;7.70;57.50
15105;DHT22;7653;48.994;9.212;2023-05-17T05:23:24;7.80;57.30
15105;DHT22;7653;48.994;9.212;2023-05-17T05:25:49;7.70;56.00
15105;DHT22;7653;48.994;9.212;2023-05-17T05:28:15;7.70;54.30
15105;DHT22;7653;48.994;9.212;2023-05-17T05:30:41;7.40;53.90
15105;DHT22;7653;48.994;9.212;2023-05-17T05:33:06;7.50;54.50
15105;DHT22;7653;48.994;9.212;2023-05-17T05:35:32;7.50;56.40
15105;DHT22;7653;48.994;9.212;2023-05-17T05:37:58;7.50;54.10
15105;DHT22;7653;48.994;9.212;2023-05-17T05:40:24;7.70;54.50
15105;DHT22;7653;48.994;9.212;2023-05-17T05:42:50;7.70;54.90
15105;DHT22;7653;48.994;9.212;2023-05-17T05:45:16;7.50;55.50
15105;DHT22;7653;48.994;9.212;2023-05-17T05:47:42;7.70;55.30
15105;DHT22;7653;48.994;9.212;2023-05-17T05:50:08;7.90;51.90
15105;DHT22;7653;48.994;9.212;2023-05-17T05:52:34;8.10;52.00
15105;DHT22;7653;48.994;9.212;2023-05-17T05:55:00;8.10;51.40
15105;DHT22;7653;48.994;9.212;2023-05-17T05:57:25;8.10;52.20
15105;DHT22;7653;48.994;9.212;2023-05-17T05:59:51;8.20;51.20
15105;DHT22;7653;48.994;9.212;2023-05-17T06:02:17;8.30;49.40
15105;DHT22;7653;48.994;9.212;2023-05-17T06:04:48;8.30;49.80
15105;DHT22;7653;48.994;9.212;2023-05-17T06:07:16;8.50;49.10
15105;DHT22;7653;48.994;9.212;2023-05-17T06:09:42;8.70;50.30
15105;DHT22;7653;48.994;9.212;2023-05-17T06:12:08;8.90;49.80
15105;DHT22;7653;48.994;9.212;2023-05-17T06:14:33;9.00;47.70
15105;DHT22;7653;48.994;9.212;2023-05-17T06:17:00;9.10;46.80
15105;DHT22;7653;48.994;9.212;2023-05-17T06:19:26;9.20;50.10
15105;DHT22;7653;48.994;9.212;2023-05-17T06:21:51;9.40;46.70
15105;DHT22;7653;48.994;9.212;2023-05-17T06:24:17;9.50;46.50
15105;DHT22;7653;48.994;9.212;2023-05-17T06:26:42;9.40;44.90
15105;DHT22;7653;48.994;9.212;2023-05-17T06:29:08;9.30;46.00
15105;DHT22;7653;48.994;9.212;2023-05-17T06:31:34;9.40;44.80
15105;DHT22;7653;48.994;9.212;2023-05-17T06:34:00;9.20;45.90
15105;DHT22;7653;48.994;9.212;2023-05-17T06:36:25;9.40;44.40
15105;DHT22;7653;48.994;9.212;2023-05-17T06:38:51;9.50;43.80
15105;DHT22;7653;48.994;9.212;2023-05-17T06:41:17;9.40;42.90
15105;DHT22;7653;48.994;9.212;2023-05-17T06:43:42;9.40;43.10
15105;DHT22;7653;48.994;9.212;2023-05-17T06:46:08;9.60;43.70
15105;DHT22;7653;48.994;9.212;2023-05-17T06:48:34;9.50;42.50
15105;DHT22;7653;48.994;9.212;2023-05-17T06:50:59;9.80;41.40
15105;DHT22;7653;48.994;9.212;2023-05-17T06:53:25;9.80;41.40
15105;DHT22;7653;48.994;9.212;2023-05-17T06:55:51;9.90;41.50
15105;DHT22;7653;48.994;9.212;2023-05-17T06:58:17;10.30;41.00
15105;DHT22;7653;48.994;9.212;2023-05-17T07:00:42;10.40;39.10
15105;DHT22;7653;48.994;9.212;2023-05-17T07:03:08;10.30;36.70
15105;DHT22;7653;48.994;9.212;2023-05-17T07:05:34;10.00;38.50
15105;DHT22;7653;48.994;9.212;2023-05-17T07:08:00;10.10;40.10
15105;DHT22;7653;48.994;9.212;2023-05-17T07:10:26;9.90;39.40
15105;DHT22;7653;48.994;9.212;2023-05-17T07:12:52;10.10;39.20
15105;DHT22;7653;48.994;9.212;2023-05-17T07:15:18;10.30;38.50
15105;DHT22;7653;48.994;9.212;2023-05-17T07:17:44;10.30;39.30
15105;DHT22;7653;48.994;9.212;2023-05-17T07:20:10;10.50;37.10
15105;DHT22;7653;48.994;9.212;2023-05-17T07:22:36;10.60;36.20
15105;DHT22;7653;48.994;9.212;2023-05-17T07:25:02;10.40;38.10
15105;DHT22;7653;48.994;9.212;2023-05-17T07:27:28;10.70;36.80
15105;DHT22;7653;48.994;9.212;2023-05-17T07:29:53;10.60;36.80
15105;DHT22;7653;48.994;9.212;2023-05-17T07:32:19;10.80;36.40
15105;DHT22;7653;48.994;9.212;2023-05-17T07:34:45;10.80;36.30
15105;DHT22;7653;48.994;9.212;2023-05-17T07:37:10;10.40;35.80
15105;DHT22;7653;48.994;9.212;2023-05-17T07:39:36;10.60;37.60
15105;DHT22;7653;48.994;9.212;2023-05-17T07:42:02;10.40;36.00
15105;DHT22;7653;48.994;9.212;2023-05-17T07:44:28;10.30;36.60
15105;DHT22;7653;48.994;9.212;2023-05-17T07:46:53;10.70;37.00
15105;DHT22;7653;48.994;9.212;2023-05-17T07:49:19;10.90;35.20
15105;DHT22;7653;48.994;9.212;2023-05-17T07:51:44;10.90;35.20
15105;DHT22;7653;48.994;9.212;2023-05-17T07:54:21;11.10;33.30
15105;DHT22;7653;48.994;9.212;2023-05-17T07:56:48;11.20;33.00
15105;DHT22;7653;48.994;9.212;2023-05-17T07:59:14;11.20;33.20
15105;DHT22;7653;48.994;9.212;2023-05-17T08:01:39;11.30;33.70
15105;DHT22;7653;48.994;9.212;2023-05-17T08:04:05;10.80;32.60
15105;DHT22;7653;48.994;9.212;2023-05-17T08:06:31;10.90;33.40
15105;DHT22;7653;48.994;9.212;2023-05-17T08:08:56;10.70;33.90
15105;DHT22;7653;48.994;9.212;2023-05-17T08:11:22;10.90;35.00
15105;DHT22;7653;48.994;9.212;2023-05-17T08:13:47;10.90;34.90
15105;DHT22;7653;48.994;9.212;2023-05-17T08:16:13;11.10;34.00
15105;DHT22;7653;48.994;9.212;2023-05-17T08:18:39;11.40;34.70
15105;DHT22;7653;48.994;9.212;2023-05-17T08:21:04;11.60;31.90
15105;DHT22;7653;48.994;9.212;2023-05-17T08:23:30;11.50;31.40
15105;DHT22;7653;48.994;9.212;2023-05-17T08:25:55;11.70;32.10
15105;DHT22;7653;48.994;9.212;2023-05-17T08:28:21;11.90;32.30
15105;DHT22;7653;48.994;9.212;2023-05-17T08:30:47;11.80;30.10
15105;DHT22;7653;48.994;9.212;2023-05-17T08:33:12;11.70;31.30
15105;DHT22;7653;48.994;9.212;2023-05-17T08:35:38;11.60;32.00
15105;DHT22;7653;48.994;9.212;2023-05-17T08:38:04;11.40;31.20
15105;DHT22;7653;48.994;9.212;2023-05-17T08:40:29;11.60;30.80
15105;DHT22;7653;48.994;9.212;2023-05-17T08:42:56;11.70;28.10
15105;DHT22;7653;48.994;9.212;2023-05-17T08:45:21;11.50;27.60
15105;DHT22;7653;48.994;9.212;2023-05-17T08:47:48;11.60;28.60
15105;DHT22;7653;48.994;9.212;2023-05-17T08:50:15;11.70;28.20
15105;DHT22;7653;48.994;9.212;2023-05-17T08:52:44;12.10;27.00
15105;DHT22;7653;48.994;9.212;2023-05-17T08:55:10;12.40;27.40
15105;DHT22;7653;48.994;9.212;2023-05-17T08:57:37;12.20;25.90
15105;DHT22;7653;48.994;9.212;2023-05-17T09:00:04;12.10;25.90
15105;DHT22;7653;48.994;9.212;2023-05-17T09:02:40;11.80;25.20
15105;DHT22;7653;48.994;9.212;2023-05-17T09:05:09;11.80;25.50
15105;DHT22;7653;48.994;9.212;2023-05-17T09:07:35;11.80;25.90
15105;DHT22;7653;48.994;9.212;2023-05-17T09:10:01;12.00;27.50
15105;DHT22;7653;48.994;9.212;2023-05-17T09:12:31;11.80;26.60
15105;DHT22;7653;48.994;9.212;2023-05-17T09:15:11;12.20;26.30
15105;DHT22;7653;48.994;9.212;2023-05-17T09:17:39;12.70;26.00
15105;DHT22;7653;48.994;9.212;2023-05-17T09:20:06;13.00;24.60
15105;DHT22;7653;48.994;9.212;2023-05-17T09:22:33;13.40;22.40
15105;DHT22;7653;48.994;9.212;2023-05-17T09:24:59;13.30;23.00
15105;DHT22;7653;48.994;9.212;2023-05-17T09:27:30;13.30;22.70
15105;DHT22;7653;48.994;9.212;2023-05-17T09:29:56;12.70;23.40
15105;DHT22;7653;48.994;9.212;2023-05-17T09:32:22;12.00;24.30
15105;DHT22;7653;48.994;9.212;2023-05-17T09:34:50;12.30;25.60
15105;DHT22;7653;48.994;9.212;2023-05-17T09:37:17;12.40;23.90
15105;DHT22;7653;48.994;9.212;2023-05-17T09:39:44;12.50;23.40
15105;DHT22;7653;48.994;9.212;2023-05-17T09:42:14;12.20;23.00
15105;DHT22;7653;48.994;9.212;2023-05-17T09:44:54;12.30;22.10
15105;DHT22;7653;48.994;9.212;2023-05-17T09:47:31;12.70;22.50
15105;DHT22;7653;48.994;9.212;2023-05-17T09:50:00;12.50;23.40
15105;DHT22;7653;48.994;9.212;2023-05-17T09:52:28;12.40;24.00
15105;DHT22;7653;48.994;9.212;2023-05-17T09:54:57;12.40;23.60
15105;DHT22;7653;48.994;9.212;2023-05-17T09:57:25;12.40;22.10
15105;DHT22;7653;48.994;9.212;2023-05-17T09:59:54;12.50;24.30
15105;DHT22;7653;48.994;9.212;2023-05-17T10:02:22;13.00;22.90
15105;DHT22;7653;48.994;9.212;2023-05-17T10:04:50;12.80;23.30
15105;DHT22;7653;48.994;9.212;2023-05-17T10:07:20;12.80;22.70
15105;DHT22;7653;48.994;9.212;2023-05-17T10:09:50;12.90;22.90
15105;DHT22;7653;48.994;9.212;2023-05-17T10:12:17;12.80;23.00
15105;DHT22;7653;48.994;9.212;2023-05-17T10:14:43;13.10;23.40
15105;DHT22;7653;48.994;9.212;2023-05-17T10:17:09;13.40;23.00
15105;DHT22;7653;48.994;9.212;2023-05-17T10:19:36;13.10;21.20
15105;DHT22;7653;48.994;9.212;2023-05-17T10:22:02;12.90;22.90
15105;DHT22;7653;48.994;9.212;2023-05-17T10:24:29;13.10;23.10
15105;DHT22;7653;48.994;9.212;2023-05-17T10:26:56;12.90;22.50
15105;DHT22;7653;48.994;9.212;2023-05-17T10:29:23;12.60;24.10
15105;DHT22;7653;48.994;9.212;2023-05-17T10:31:49;12.70;23.10
15105;DHT22;7653;48.994;9.212;2023-05-17T10:34:18;12.70;23.60
15105;DHT22;7653;48.994;9.212;2023-05-17T10:36:44;12.70;24.10
15105;DHT22;7653;48.994;9.212;2023-05-17T10:39:11;12.70;23.10
15105;DHT22;7653;48.994;9.212;2023-05-17T10:41:41;12.50;24.20
15105;DHT22;7653;48.994;9.212;2023-05-17T10:44:11;12.90;23.50
15105;DHT22;7653;48.994;9.212;2023-05-17T10:46:37;12.60;22.90
15105;DHT22;7653;48.994;9.212;2023-05-17T10:49:03;12.70;23.10
15105;DHT22;7653;48.994;9.212;2023-05-17T10:54:11;13.20;21.80
15105;DHT22;7653;48.994;9.212;2023-05-17T10:56:41;13.50;20.80
15105;DHT22;7653;48.994;9.212;2023-05-17T10:59:25;13.40;20.30
15105;DHT22;7653;48.994;9.212;2023-05-17T11:04:41;12.60;20.80
15105;DHT22;7653;48.994;9.212;2023-05-17T11:14:54;13.60;20.10
15105;DHT22;7653;48.994;9.212;2023-05-17T11:17:23;13.50;19.50
15105;DHT22;7653;48.994;9.212;2023-05-17T11:20:07;13.80;19.60
15105;DHT22;7653;48.994;9.212;2023-05-17T11:23:01;14.10;19.90
15105;DHT22;7653;48.994;9.212;2023-05-17T11:25:34;14.00;18.40
15105;DHT22;7653;48.994;9.212;2023-05-17T11:28:04;13.30;20.20
15105;DHT22;7653;48.994;9.212;2023-05-17T11:30:31;13.00;20.60
15105;DHT22;7653;48.994;9.212;2023-05-17T11:32:59;12.70;20.80
15105;DHT22;7653;48.994;9.212;2023-05-17T11:35:34;12.80;22.60
15105;DHT22;7653;48.994;9.212;2023-05-17T11:40:39;13.10;22.50
15105;DHT22;7653;48.994;9.212;2023-05-17T11:43:26;12.60;23.60
15105;DHT22;7653;48.994;9.212;2023-05-17T11:45:56;13.10;22.90
15105;DHT22;7653;48.994;9.212;2023-05-17T11:48:24;13.00;23.30
15105;DHT22;7653;48.994;9.212;2023-05-17T11:50:51;13.00;22.10
15105;DHT22;7653;48.994;9.212;2023-05-17T11:53:18;13.00;21.90
15105;DHT22;7653;48.994;9.212;2023-05-17T11:55:45;12.90;22.60
15105;DHT22;7653;48.994;9.212;2023-05-17T11:58:15;13.20;22.70
15105;DHT22;7653;48.994;9.212;2023-05-17T12:00:41;13.60;20.90
15105;DHT22;7653;48.994;9.212;2023-05-17T12:05:44;13.50;20.80
15105;DHT22;7653;48.994;9.212;2023-05-17T12:08:10;13.30;20.70
15105;DHT22;7653;48.994;9.212;2023-05-17T12:10:36;13.40;19.50
15105;DHT22;7653;48.994;9.212;2023-05-17T12:13:02;13.80;20.90
15105;DHT22;7653;48.994;9.212;2023-05-17T12:15:29;14.00;19.30
15105;DHT22;7653;48.994;9.212;2023-05-17T12:17:56;13.30;19.80
15105;DHT22;7653;48.994;9.212;2023-05-17T12:20:21;13.50;20.80
15105;DHT22;7653;48.994;9.212;2023-05-17T12:22:54;13.50;20.60
15105;DHT22;7653;48.994;9.212;2023-05-17T12:25:21;13.60;20.60
15105;DHT22;7653;48.994;9.212;2023-05-17T12:27:50;13.80;21.60
15105;DHT22;7653;48.994;9.212;2023-05-17T12:30:16;13.90;21.50
15105;DHT22;7653;48.994;9.212;2023-05-17T12:32:42;14.40;20.40
15105;DHT22;7653;48.994;9.212;2023-05-17T12:35:09;14.30;18.60
15105;DHT22;7653;48.994;9.212;2023-05-17T12:37:35;14.10;18.00
15105;DHT22;7653;48.994;9.212;2023-05-17T12:40:01;14.40;19.50
15105;DHT22;7653;48.994;9.212;2023-05-17T12:42:30;14.40;19.00
15105;DHT22;7653;48.994;9.212;2023-05-17T12:44:58;14.70;19.40
15105;DHT22;7653;48.994;9.212;2023-05-17T12:47:30;14.40;17.60
15105;DHT22;7653;48.994;9.212;2023-05-17T12:49:57;13.90;18.30
15105;DHT22;7653;48.994;9.212;2023-05-17T12:52:24;13.90;17.20
15105;DHT22;7653;48.994;9.212;2023-05-17T12:54:50;13.70;19.50
15105;DHT22;7653;48.994;9.212;2023-05-17T12:57:17;14.00;18.90
15105;DHT22;7653;48.994;9.212;2023-05-17T12:59:47;13.90;19.00
15105;DHT22;7653;48.994;9.212;2023-05-17T13:02:14;13.60;18.50
15105;DHT22;7653;48.994;9.212;2023-05-17T13:04:40;13.20;19.60
15105;DHT22;7653;48.994;9.212;2023-05-17T13:07:06;13.30;18.80
15105;DHT22;7653;48.994;9.212;2023-05-17T13:09:32;13.80;19.00
15105;DHT22;7653;48.994;9.212;2023-05-17T13:11:59;14.10;17.10
15105;DHT22;7653;48.994;9.212;2023-05-17T13:17:03;14.50;18.30
15105;DHT22;7653;48.994;9.212;2023-05-17T13:19:28;14.20;15.90
15105;DHT22;7653;48.994;9.212;2023-05-17T13:21:54;14.20;16.30
15105;DHT22;7653;48.994;9.212;2023-05-17T13:24:20;14.30;17.20
15105;DHT22;7653;48.994;9.212;2023-05-17T13:26:46;14.40;15.80
15105;DHT22;7653;48.994;9.212;2023-05-17T13:29:11;14.70;17.00
15105;DHT22;7653;48.994;9.212;2023-05-17T13:31:37;14.80;15.10
15105;DHT22;7653;48.994;9.212;2023-05-17T13:34:02;15.10;16.60
15105;DHT22;7653;48.994;9.212;2023-05-17T13:36:28;15.00;15.60
15105;DHT22;7653;48.994;9.212;2023-05-17T13:38:54;14.60;15.00
15105;DHT22;7653;48.994;9.212;2023-05-17T13:41:21;14.40;14.90
15105;DHT22;7653;48.994;9.212;2023-05-17T13:43:47;14.00;14.90
15105;DHT22;7653;48.994;9.212;2023-05-17T13:46:13;13.80;16.40
15105;DHT22;7653;48.994;9.212;2023-05-17T13:48:38;13.90;16.90
15105;DHT22;7653;48.994;9.212;2023-05-17T13:51:04;13.90;17.00
15105;DHT22;7653;48.994;9.212;2023-05-17T13:53:30;13.90;18.50
15105;DHT22;7653;48.994;9.212;2023-05-17T13:55:55;13.50;19.70
15105;DHT22;7653;48.994;9.212;2023-05-17T13:58:21;13.40;20.80
15105;DHT22;7653;48.994;9.212;2023-05-17T14:00:46;13.70;21.20
15105;DHT22;7653;48.994;9.212;2023-05-17T14:03:12;13.60;20.00
15105;DHT22;7653;48.994;9.212;2023-05-17T14:05:39;13.80;19.30
15105;DHT22;7653;48.994;9.212;2023-05-17T14:08:05;13.60;19.80
15105;DHT22;7653;48.994;9.212;2023-05-17T14:10:31;13.50;19.70
15105;DHT22;7653;48.994;9.212;2023-05-17T14:12:57;13.80;20.60
15105;DHT22;7653;48.994;9.212;2023-05-17T14:15:23;14.10;19.10
15105;DHT22;7653;48.994;9.212;2023-05-17T14:17:49;13.60;19.00
15105;DHT22;7653;48.994;9.212;2023-05-17T14:20:14;13.70;20.00
15105;DHT22;7653;48.994;9.212;2023-05-17T14:22:40;14.10;19.30
15105;DHT22;7653;48.994;9.212;2023-05-17T14:25:07;14.60;18.60
15105;DHT22;7653;48.994;9.212;2023-05-17T14:27:33;14.60;17.40
15105;DHT22;7653;48.994;9.212;2023-05-17T14:29:58;14.00;18.10
15105;DHT22;7653;48.994;9.212;2023-05-17T14:32:26;14.00;18.30
15105;DHT22;7653;48.994;9.212;2023-05-17T14:34:51;14.30;18.80
15105;DHT22;7653;48.994;9.212;2023-05-17T14:37:17;14.90;16.70
15105;DHT22;7653;48.994;9.212;2023-05-17T14:39:43;15.60;15.90
15105;DHT22;7653;48.994;9.212;2023-05-17T14:42:09;17.30;15.00
15105;DHT22;7653;48.994;9.212;2023-05-17T14:44:34;18.00;13.90
15105;DHT22;7653;48.994;9.212;2023-05-17T14:47:06;17.00;14.10
15105;DHT22;7653;48.994;9.212;2023-05-17T14:49:31;17.00;15.30
15105;DHT22;7653;48.994;9.212;2023-05-17T14:51:57;17.00;15.40
15105;DHT22;7653;48.994;9.212;2023-05-17T14:54:23;16.10;14.30
15105;DHT22;7653;48.994;9.212;2023-05-17T14:56:54;16.10;14.30
15105;DHT22;7653;48.994;9.212;2023-05-17T14:59:20;15.80;14.00
15105;DHT22;7653;48.994;9.212;2023-05-17T15:01:46;15.80;14.10
15105;DHT22;7653;48.994;9.212;2023-05-17T15:04:11;15.40;14.30
15105;DHT22;7653;48.994;9.212;2023-05-17T15:06:37;15.50;13.00
15105;DHT22;7653;48.994;9.212;2023-05-17T15:09:03;15.80;12.90
15105;DHT22;7653;48.994;9.212;2023-05-17T15:11:29;14.60;13.20
15105;DHT22;7653;48.994;9.212;2023-05-17T15:13:55;14.70;14.80
15105;DHT22;7653;48.994;9.212;2023-05-17T15:16:21;15.50;16.30
15105;DHT22;7653;48.994;9.212;2023-05-17T15:18:47;16.00;15.80
15105;DHT22;7653;48.994;9.212;2023-05-17T15:21:13;16.70;10.70
15105;DHT22;7653;48.994;9.212;2023-05-17T15:23:38;16.70;13.10
15105;DHT22;7653;48.994;9.212;2023-05-17T15:26:04;17.00;12.90
15105;DHT22;7653;48.994;9.212;2023-05-17T15:28:30;16.60;13.40
15105;DHT22;7653;48.994;9.212;2023-05-17T15:31:03;16.00;12.60
15105;DHT22;7653;48.994;9.212;2023-05-17T15:33:37;15.50;13.00
15105;DHT22;7653;48.994;9.212;2023-05-17T15:36:11;14.70;14.90
15105;DHT22;7653;48.994;9.212;2023-05-17T15:38:37;15.00;15.80
15105;DHT22;7653;48.994;9.212;2023-05-17T15:41:10;15.10;15.90
15105;DHT22;7653;48.994;9.212;2023-05-17T15:43:35;15.80;14.00
15105;DHT22;7653;48.994;9.212;2023-05-17T15:46:01;16.60;14.60
15105;DHT22;7653;48.994;9.212;2023-05-17T15:48:27;17.70;11.10
15105;DHT22;7653;48.994;9.212;2023-05-17T15:50:56;16.80;10.50
15105;DHT22;7653;48.994;9.212;2023-05-17T15:53:25;17.40;11.90
15105;DHT22;7653;48.994;9.212;2023-05-17T15:55:51;18.00;11.20
15105;DHT22;7653;48.994;9.212;2023-05-17T15:58:18;18.10;10.30
15105;DHT22;7653;48.994;9.212;2023-05-17T16:00:44;17.80;13.50
15105;DHT22;7653;48.994;9.212;2023-05-17T16:03:10;17.70;11.00
15105;DHT22;7653;48.994;9.212;2023-05-17T16:05:37;17.10;8.90
15105;DHT22;7653;48.994;9.212;2023-05-17T16:08:02;16.80;10.90
15105;DHT22;7653;48.994;9.212;2023-05-17T16:10:28;16.80;12.70
15105;DHT22;7653;48.994;9.212;2023-05-17T16:12:54;17.00;10.60
15105;DHT22;7653;48.994;9.212;2023-05-17T16:15:19;15.90;11.70
15105;DHT22;7653;48.994;9.212;2023-05-17T16:17:45;15.90;12.90
15105;DHT22;7653;48.994;9.212;2023-05-17T16:20:11;15.90;13.50
15105;DHT22;7653;48.994;9.212;2023-05-17T16:22:44;16.40;12.20